sensor_id;sensor_type;location;lat;lon;timestamp;P1;durP1;ratioP1;P2;durP2;ratioP2
63536;SDS011;49686;51.880;5.632;2022-07-04T00:00:16;9.75;;;5.95;;
63536;SDS011;49686;51.880;5.632;2022-07-04T00:02:47;9.05;;;6.40;;
63536;SDS011;49686;51.880;5.632;2022-07-04T00:05:20;10.70;;;6.10;;
63536;SDS011;49686;51.880;5.632;2022-07-04T00:07:57;9.75;;;5.40;;
63536;SDS011;49686;51.880;5.632;2022-07-04T00:10:24;8.00;;;5.32;;
63536;SDS011;49686;51.880;5.632;2022-07-04T00:12:51;9.98;;;5.72;;
63536;SDS011;49686;51.880;5.632;2022-07-04T00:15:21;9.40;;;5.80;;
63536;SDS011;49686;51.880;5.632;2022-07-04T00:17:48;11.57;;;6.72;;
63536;SDS011;49686;51.880;5.632;2022-07-04T00:20:17;8.15;;;5.65;;
63536;SDS011;49686;51.880;5.632;2022-07-04T00:22:48;13.55;;;6.72;;
63536;SDS011;49686;51.880;5.632;2022-07-04T00:25:16;9.88;;;5.28;;
63536;SDS011;49686;51.880;5.632;2022-07-04T00:27:46;10.73;;;5.63;;
63536;SDS011;49686;51.880;5.632;2022-07-04T00:30:13;8.38;;;5.18;;
63536;SDS011;49686;51.880;5.632;2022-07-04T00:32:40;7.05;;;5.30;;
63536;SDS011;49686;51.880;5.632;2022-07-04T00:35:10;9.65;;;5.38;;
63536;SDS011;49686;51.880;5.632;2022-07-04T00:37:42;7.18;;;4.53;;
63536;SDS011;49686;51.880;5.632;2022-07-04T00:40:09;8.68;;;5.75;;
63536;SDS011;49686;51.880;5.632;2022-07-04T00:42:40;10.50;;;6.32;;
63536;SDS011;49686;51.880;5.632;2022-07-04T00:45:08;10.20;;;6.00;;
63536;SDS011;49686;51.880;5.632;2022-07-04T00:47:36;12.02;;;5.93;;
63536;SDS011;49686;51.880;5.632;2022-07-04T00:50:03;10.45;;;5.70;;
63536;SDS011;49686;51.880;5.632;2022-07-04T00:52:30;10.53;;;6.03;;
63536;SDS011;49686;51.880;5.632;2022-07-04T00:54:58;11.93;;;5.93;;
63536;SDS011;49686;51.880;5.632;2022-07-04T00:57:25;11.07;;;5.63;;
63536;SDS011;49686;51.880;5.632;2022-07-04T00:59:54;8.25;;;5.97;;
63536;SDS011;49686;51.880;5.632;2022-07-04T01:02:23;9.38;;;5.88;;
63536;SDS011;49686;51.880;5.632;2022-07-04T01:04:50;9.80;;;6.00;;
63536;SDS011;49686;51.880;5.632;2022-07-04T01:07:19;8.73;;;5.72;;
63536;SDS011;49686;51.880;5.632;2022-07-04T01:09:46;11.75;;;6.18;;
63536;SDS011;49686;51.880;5.632;2022-07-04T01:12:24;10.77;;;6.43;;
63536;SDS011;49686;51.880;5.632;2022-07-04T01:14:52;9.70;;;6.13;;
63536;SDS011;49686;51.880;5.632;2022-07-04T01:17:20;9.03;;;6.47;;
63536;SDS011;49686;51.880;5.632;2022-07-04T01:19:47;10.77;;;6.20;;
63536;SDS011;49686;51.880;5.632;2022-07-04T01:22:16;11.27;;;6.70;;
63536;SDS011;49686;51.880;5.632;2022-07-04T01:24:45;9.82;;;7.50;;
63536;SDS011;49686;51.880;5.632;2022-07-04T01:27:15;10.98;;;7.00;;
63536;SDS011;49686;51.880;5.632;2022-07-04T01:29:46;11.13;;;6.97;;
63536;SDS011;49686;51.880;5.632;2022-07-04T01:32:12;7.72;;;5.82;;
63536;SDS011;49686;51.880;5.632;2022-07-04T01:34:44;11.45;;;7.18;;
63536;SDS011;49686;51.880;5.632;2022-07-04T01:37:11;8.43;;;6.45;;
63536;SDS011;49686;51.880;5.632;2022-07-04T01:39:39;8.85;;;5.95;;
63536;SDS011;49686;51.880;5.632;2022-07-04T01:42:07;9.95;;;6.90;;
63536;SDS011;49686;51.880;5.632;2022-07-04T01:44:34;7.63;;;6.03;;
63536;SDS011;49686;51.880;5.632;2022-07-04T01:47:01;7.60;;;6.22;;
63536;SDS011;49686;51.880;5.632;2022-07-04T01:49:29;7.03;;;5.43;;
63536;SDS011;49686;51.880;5.632;2022-07-04T01:51:58;10.25;;;6.97;;
63536;SDS011;49686;51.880;5.632;2022-07-04T01:54:25;10.52;;;6.50;;
63536;SDS011;49686;51.880;5.632;2022-07-04T01:56:57;11.07;;;6.43;;
63536;SDS011;49686;51.880;5.632;2022-07-04T01:59:24;9.75;;;6.85;;
63536;SDS011;49686;51.880;5.632;2022-07-04T02:01:51;9.80;;;6.10;;
63536;SDS011;49686;51.880;5.632;2022-07-04T02:04:19;10.63;;;7.07;;
63536;SDS011;49686;51.880;5.632;2022-07-04T02:06:48;11.75;;;7.10;;
63536;SDS011;49686;51.880;5.632;2022-07-04T02:09:15;9.38;;;6.50;;
63536;SDS011;49686;51.880;5.632;2022-07-04T02:11:43;9.70;;;8.00;;
63536;SDS011;49686;51.880;5.632;2022-07-04T02:14:12;8.63;;;6.93;;
63536;SDS011;49686;51.880;5.632;2022-07-04T02:16:39;12.77;;;6.73;;
63536;SDS011;49686;51.880;5.632;2022-07-04T02:19:12;7.80;;;6.40;;
63536;SDS011;49686;51.880;5.632;2022-07-04T02:21:39;8.75;;;6.75;;
63536;SDS011;49686;51.880;5.632;2022-07-04T02:24:08;10.10;;;7.22;;
63536;SDS011;49686;51.880;5.632;2022-07-04T02:26:38;9.00;;;6.90;;
63536;SDS011;49686;51.880;5.632;2022-07-04T02:29:07;9.77;;;6.82;;
63536;SDS011;49686;51.880;5.632;2022-07-04T02:31:35;7.80;;;5.90;;
63536;SDS011;49686;51.880;5.632;2022-07-04T02:34:05;8.23;;;5.97;;
63536;SDS011;49686;51.880;5.632;2022-07-04T02:36:32;11.23;;;7.65;;
63536;SDS011;49686;51.880;5.632;2022-07-04T02:38:59;10.98;;;8.30;;
63536;SDS011;49686;51.880;5.632;2022-07-04T02:41:29;10.68;;;8.10;;
63536;SDS011;49686;51.880;5.632;2022-07-04T02:44:00;10.88;;;8.45;;
63536;SDS011;49686;51.880;5.632;2022-07-04T02:46:28;13.45;;;9.40;;
63536;SDS011;49686;51.880;5.632;2022-07-04T02:48:57;10.80;;;8.30;;
63536;SDS011;49686;51.880;5.632;2022-07-04T02:51:23;10.43;;;7.15;;
63536;SDS011;49686;51.880;5.632;2022-07-04T02:53:52;8.65;;;7.43;;
63536;SDS011;49686;51.880;5.632;2022-07-04T02:56:19;9.20;;;6.60;;
63536;SDS011;49686;51.880;5.632;2022-07-04T02:58:46;9.15;;;6.82;;
63536;SDS011;49686;51.880;5.632;2022-07-04T03:01:17;10.82;;;7.53;;
63536;SDS011;49686;51.880;5.632;2022-07-04T03:03:44;9.48;;;8.13;;
63536;SDS011;49686;51.880;5.632;2022-07-04T03:06:12;8.82;;;5.88;;
63536;SDS011;49686;51.880;5.632;2022-07-04T03:08:43;9.45;;;6.68;;
63536;SDS011;49686;51.880;5.632;2022-07-04T03:11:10;8.93;;;6.85;;
63536;SDS011;49686;51.880;5.632;2022-07-04T03:13:40;9.18;;;6.45;;
63536;SDS011;49686;51.880;5.632;2022-07-04T03:16:09;9.75;;;7.18;;
63536;SDS011;49686;51.880;5.632;2022-07-04T03:18:36;9.52;;;5.72;;
63536;SDS011;49686;51.880;5.632;2022-07-04T03:21:06;10.80;;;6.93;;
63536;SDS011;49686;51.880;5.632;2022-07-04T03:23:42;9.93;;;6.80;;
63536;SDS011;49686;51.880;5.632;2022-07-04T03:26:09;9.57;;;8.02;;
63536;SDS011;49686;51.880;5.632;2022-07-04T03:28:36;10.00;;;7.20;;
63536;SDS011;49686;51.880;5.632;2022-07-04T03:31:06;9.30;;;6.88;;
63536;SDS011;49686;51.880;5.632;2022-07-04T03:35:59;11.15;;;5.82;;
63536;SDS011;49686;51.880;5.632;2022-07-04T03:38:32;7.85;;;5.18;;
63536;SDS011;49686;51.880;5.632;2022-07-04T03:41:00;7.43;;;6.50;;
63536;SDS011;49686;51.880;5.632;2022-07-04T03:43:30;11.32;;;6.40;;
63536;SDS011;49686;51.880;5.632;2022-07-04T03:46:03;7.78;;;6.03;;
63536;SDS011;49686;51.880;5.632;2022-07-04T03:48:30;12.13;;;6.38;;
63536;SDS011;49686;51.880;5.632;2022-07-04T03:50:57;8.73;;;5.00;;
63536;SDS011;49686;51.880;5.632;2022-07-04T03:53:25;6.63;;;5.28;;
63536;SDS011;49686;51.880;5.632;2022-07-04T03:55:51;9.32;;;5.25;;
63536;SDS011;49686;51.880;5.632;2022-07-04T03:58:20;8.27;;;5.55;;
63536;SDS011;49686;51.880;5.632;2022-07-04T04:00:47;8.15;;;5.65;;
63536;SDS011;49686;51.880;5.632;2022-07-04T04:03:17;7.18;;;5.18;;
63536;SDS011;49686;51.880;5.632;2022-07-04T04:05:44;9.50;;;5.90;;
63536;SDS011;49686;51.880;5.632;2022-07-04T04:08:11;8.60;;;5.85;;
63536;SDS011;49686;51.880;5.632;2022-07-04T04:10:38;7.40;;;5.80;;
63536;SDS011;49686;51.880;5.632;2022-07-04T04:13:05;12.05;;;5.78;;
63536;SDS011;49686;51.880;5.632;2022-07-04T04:15:34;7.97;;;5.60;;
63536;SDS011;49686;51.880;5.632;2022-07-04T04:18:00;9.38;;;6.22;;
63536;SDS011;49686;51.880;5.632;2022-07-04T04:20:27;7.28;;;5.60;;
63536;SDS011;49686;51.880;5.632;2022-07-04T04:22:55;11.32;;;6.47;;
63536;SDS011;49686;51.880;5.632;2022-07-04T04:25:21;9.43;;;6.38;;
63536;SDS011;49686;51.880;5.632;2022-07-04T04:27:49;8.70;;;5.90;;
63536;SDS011;49686;51.880;5.632;2022-07-04T04:30:19;9.75;;;5.40;;
63536;SDS011;49686;51.880;5.632;2022-07-04T04:32:47;8.60;;;5.40;;
63536;SDS011;49686;51.880;5.632;2022-07-04T04:35:16;7.43;;;5.50;;
63536;SDS011;49686;51.880;5.632;2022-07-04T04:37:43;7.97;;;5.15;;
63536;SDS011;49686;51.880;5.632;2022-07-04T04:40:10;11.57;;;4.78;;
63536;SDS011;49686;51.880;5.632;2022-07-04T04:42:42;6.70;;;5.38;;
63536;SDS011;49686;51.880;5.632;2022-07-04T04:45:09;5.20;;;4.07;;
63536;SDS011;49686;51.880;5.632;2022-07-04T04:47:36;10.77;;;4.80;;
63536;SDS011;49686;51.880;5.632;2022-07-04T04:50:07;8.82;;;4.80;;
63536;SDS011;49686;51.880;5.632;2022-07-04T04:52:36;6.93;;;4.47;;
63536;SDS011;49686;51.880;5.632;2022-07-04T04:55:03;9.70;;;4.93;;
63536;SDS011;49686;51.880;5.632;2022-07-04T04:57:31;5.95;;;5.18;;
63536;SDS011;49686;51.880;5.632;2022-07-04T05:00:02;5.97;;;4.53;;
63536;SDS011;49686;51.880;5.632;2022-07-04T05:02:31;6.75;;;3.65;;
63536;SDS011;49686;51.880;5.632;2022-07-04T05:04:58;10.07;;;4.40;;
63536;SDS011;49686;51.880;5.632;2022-07-04T05:07:26;7.20;;;4.35;;
63536;SDS011;49686;51.880;5.632;2022-07-04T05:12:20;6.72;;;4.05;;
63536;SDS011;49686;51.880;5.632;2022-07-04T05:14:47;8.10;;;4.40;;
63536;SDS011;49686;51.880;5.632;2022-07-04T05:17:14;6.22;;;3.90;;
63536;SDS011;49686;51.880;5.632;2022-07-04T05:19:41;8.10;;;4.00;;
63536;SDS011;49686;51.880;5.632;2022-07-04T05:22:08;6.15;;;3.80;;
63536;SDS011;49686;51.880;5.632;2022-07-04T05:24:37;6.05;;;3.90;;
63536;SDS011;49686;51.880;5.632;2022-07-04T05:27:06;7.65;;;4.03;;
63536;SDS011;49686;51.880;5.632;2022-07-04T05:29:37;6.63;;;3.97;;
63536;SDS011;49686;51.880;5.632;2022-07-04T05:32:04;5.97;;;3.95;;
63536;SDS011;49686;51.880;5.632;2022-07-04T05:34:31;6.18;;;3.42;;
63536;SDS011;49686;51.880;5.632;2022-07-04T05:36:59;6.53;;;3.83;;
63536;SDS011;49686;51.880;5.632;2022-07-04T05:39:25;7.88;;;3.63;;
63536;SDS011;49686;51.880;5.632;2022-07-04T05:41:54;4.05;;;2.65;;
63536;SDS011;49686;51.880;5.632;2022-07-04T05:44:21;5.22;;;3.30;;
63536;SDS011;49686;51.880;5.632;2022-07-04T05:46:48;4.47;;;3.53;;
63536;SDS011;49686;51.880;5.632;2022-07-04T05:49:15;5.68;;;3.60;;
63536;SDS011;49686;51.880;5.632;2022-07-04T05:51:44;5.72;;;3.22;;
63536;SDS011;49686;51.880;5.632;2022-07-04T05:54:11;5.80;;;3.60;;
63536;SDS011;49686;51.880;5.632;2022-07-04T05:56:42;8.25;;;3.50;;
63536;SDS011;49686;51.880;5.632;2022-07-04T05:59:11;6.70;;;3.40;;
63536;SDS011;49686;51.880;5.632;2022-07-04T06:01:38;8.32;;;3.30;;
63536;SDS011;49686;51.880;5.632;2022-07-04T06:04:05;5.57;;;2.58;;
63536;SDS011;49686;51.880;5.632;2022-07-04T06:06:33;7.68;;;3.40;;
63536;SDS011;49686;51.880;5.632;2022-07-04T06:09:00;7.50;;;3.00;;
63536;SDS011;49686;51.880;5.632;2022-07-04T06:11:27;7.53;;;3.55;;
63536;SDS011;49686;51.880;5.632;2022-07-04T06:13:55;4.65;;;2.50;;
63536;SDS011;49686;51.880;5.632;2022-07-04T06:16:23;6.55;;;3.53;;
63536;SDS011;49686;51.880;5.632;2022-07-04T06:18:50;9.05;;;4.13;;
63536;SDS011;49686;51.880;5.632;2022-07-04T06:21:18;9.35;;;4.63;;
63536;SDS011;49686;51.880;5.632;2022-07-04T06:23:44;7.10;;;3.55;;
63536;SDS011;49686;51.880;5.632;2022-07-04T06:26:24;9.77;;;4.63;;
63536;SDS011;49686;51.880;5.632;2022-07-04T06:28:51;8.52;;;3.83;;
63536;SDS011;49686;51.880;5.632;2022-07-04T06:31:21;6.88;;;4.57;;
63536;SDS011;49686;51.880;5.632;2022-07-04T06:33:52;9.07;;;3.80;;
63536;SDS011;49686;51.880;5.632;2022-07-04T06:36:21;8.82;;;3.22;;
63536;SDS011;49686;51.880;5.632;2022-07-04T06:38:53;10.02;;;4.60;;
63536;SDS011;49686;51.880;5.632;2022-07-04T06:41:20;5.50;;;3.70;;
63536;SDS011;49686;51.880;5.632;2022-07-04T06:43:47;7.97;;;4.00;;
63536;SDS011;49686;51.880;5.632;2022-07-04T06:46:15;6.35;;;3.67;;
63536;SDS011;49686;51.880;5.632;2022-07-04T06:48:45;7.93;;;4.55;;
63536;SDS011;49686;51.880;5.632;2022-07-04T06:51:13;8.07;;;4.43;;
63536;SDS011;49686;51.880;5.632;2022-07-04T06:53:41;9.50;;;4.65;;
63536;SDS011;49686;51.880;5.632;2022-07-04T06:56:08;8.05;;;4.30;;
63536;SDS011;49686;51.880;5.632;2022-07-04T06:58:37;8.23;;;4.80;;
63536;SDS011;49686;51.880;5.632;2022-07-04T07:01:05;7.45;;;4.25;;
63536;SDS011;49686;51.880;5.632;2022-07-04T07:03:32;7.05;;;3.53;;
63536;SDS011;49686;51.880;5.632;2022-07-04T07:05:59;8.82;;;3.50;;
63536;SDS011;49686;51.880;5.632;2022-07-04T07:08:29;7.22;;;4.07;;
63536;SDS011;49686;51.880;5.632;2022-07-04T07:10:57;8.55;;;4.32;;
63536;SDS011;49686;51.880;5.632;2022-07-04T07:13:24;10.25;;;5.00;;
63536;SDS011;49686;51.880;5.632;2022-07-04T07:15:54;12.05;;;5.20;;
63536;SDS011;49686;51.880;5.632;2022-07-04T07:18:24;10.63;;;5.10;;
63536;SDS011;49686;51.880;5.632;2022-07-04T07:20:51;12.32;;;4.97;;
63536;SDS011;49686;51.880;5.632;2022-07-04T07:23:18;9.15;;;3.72;;
63536;SDS011;49686;51.880;5.632;2022-07-04T07:25:49;10.30;;;4.18;;
63536;SDS011;49686;51.880;5.632;2022-07-04T07:28:16;8.77;;;4.70;;
63536;SDS011;49686;51.880;5.632;2022-07-04T07:30:43;10.05;;;5.22;;
63536;SDS011;49686;51.880;5.632;2022-07-04T07:33:13;9.38;;;4.10;;
63536;SDS011;49686;51.880;5.632;2022-07-04T07:35:43;11.38;;;4.85;;
63536;SDS011;49686;51.880;5.632;2022-07-04T07:38:11;7.80;;;4.20;;
63536;SDS011;49686;51.880;5.632;2022-07-04T07:40:38;13.80;;;4.80;;
63536;SDS011;49686;51.880;5.632;2022-07-04T07:43:09;8.13;;;4.00;;
63536;SDS011;49686;51.880;5.632;2022-07-04T07:45:40;13.30;;;5.35;;
63536;SDS011;49686;51.880;5.632;2022-07-04T07:48:12;10.57;;;4.78;;
63536;SDS011;49686;51.880;5.632;2022-07-04T07:50:42;11.05;;;4.68;;
63536;SDS011;49686;51.880;5.632;2022-07-04T07:53:09;10.20;;;4.95;;
63536;SDS011;49686;51.880;5.632;2022-07-04T07:55:36;13.32;;;5.35;;
63536;SDS011;49686;51.880;5.632;2022-07-04T07:58:03;21.38;;;7.18;;
63536;SDS011;49686;51.880;5.632;2022-07-04T08:00:32;12.98;;;6.13;;
63536;SDS011;49686;51.880;5.632;2022-07-04T08:03:20;17.45;;;7.68;;
63536;SDS011;49686;51.880;5.632;2022-07-04T08:05:47;9.43;;;5.00;;
63536;SDS011;49686;51.880;5.632;2022-07-04T08:08:13;14.07;;;6.35;;
63536;SDS011;49686;51.880;5.632;2022-07-04T08:10:44;14.82;;;6.90;;
63536;SDS011;49686;51.880;5.632;2022-07-04T08:13:11;16.08;;;7.28;;
63536;SDS011;49686;51.880;5.632;2022-07-04T08:15:40;14.40;;;6.57;;
63536;SDS011;49686;51.880;5.632;2022-07-04T08:18:07;15.75;;;7.10;;
63536;SDS011;49686;51.880;5.632;2022-07-04T08:20:36;9.77;;;5.40;;
63536;SDS011;49686;51.880;5.632;2022-07-04T08:23:25;12.80;;;5.93;;
63536;SDS011;49686;51.880;5.632;2022-07-04T08:25:52;20.20;;;7.43;;
63536;SDS011;49686;51.880;5.632;2022-07-04T08:28:19;11.48;;;6.95;;
63536;SDS011;49686;51.880;5.632;2022-07-04T08:30:48;12.00;;;4.88;;
63536;SDS011;49686;51.880;5.632;2022-07-04T08:33:15;7.35;;;4.57;;
63536;SDS011;49686;51.880;5.632;2022-07-04T08:35:42;9.77;;;5.15;;
63536;SDS011;49686;51.880;5.632;2022-07-04T08:38:11;8.90;;;4.30;;
63536;SDS011;49686;51.880;5.632;2022-07-04T08:40:38;10.05;;;5.63;;
63536;SDS011;49686;51.880;5.632;2022-07-04T08:43:07;10.77;;;5.35;;
63536;SDS011;49686;51.880;5.632;2022-07-04T08:45:39;10.15;;;6.45;;
63536;SDS011;49686;51.880;5.632;2022-07-04T08:48:35;9.05;;;5.38;;
63536;SDS011;49686;51.880;5.632;2022-07-04T08:51:09;10.70;;;5.78;;
63536;SDS011;49686;51.880;5.632;2022-07-04T08:53:42;12.73;;;6.20;;
63536;SDS011;49686;51.880;5.632;2022-07-04T08:56:17;14.05;;;6.03;;
63536;SDS011;49686;51.880;5.632;2022-07-04T08:58:45;14.73;;;5.80;;
63536;SDS011;49686;51.880;5.632;2022-07-04T09:01:15;12.27;;;5.90;;
63536;SDS011;49686;51.880;5.632;2022-07-04T09:03:44;12.20;;;5.35;;
63536;SDS011;49686;51.880;5.632;2022-07-04T09:06:12;13.02;;;5.75;;
63536;SDS011;49686;51.880;5.632;2022-07-04T09:08:40;12.47;;;5.27;;
63536;SDS011;49686;51.880;5.632;2022-07-04T09:11:08;12.95;;;4.97;;
63536;SDS011;49686;51.880;5.632;2022-07-04T09:13:35;8.32;;;3.78;;
63536;SDS011;49686;51.880;5.632;2022-07-04T09:16:03;10.07;;;4.20;;
63536;SDS011;49686;51.880;5.632;2022-07-04T09:18:31;8.05;;;3.58;;
63536;SDS011;49686;51.880;5.632;2022-07-04T09:21:01;11.30;;;3.58;;
63536;SDS011;49686;51.880;5.632;2022-07-04T09:23:30;9.40;;;2.92;;
63536;SDS011;49686;51.880;5.632;2022-07-04T09:26:08;7.05;;;3.45;;
63536;SDS011;49686;51.880;5.632;2022-07-04T09:28:41;9.02;;;3.53;;
63536;SDS011;49686;51.880;5.632;2022-07-04T09:31:13;8.05;;;3.20;;
63536;SDS011;49686;51.880;5.632;2022-07-04T09:33:44;10.30;;;3.25;;
63536;SDS011;49686;51.880;5.632;2022-07-04T09:36:21;7.30;;;3.70;;
63536;SDS011;49686;51.880;5.632;2022-07-04T09:39:08;5.30;;;2.70;;
63536;SDS011;49686;51.880;5.632;2022-07-04T09:41:51;9.48;;;3.85;;
63536;SDS011;49686;51.880;5.632;2022-07-04T09:44:22;8.35;;;2.63;;
63536;SDS011;49686;51.880;5.632;2022-07-04T09:46:50;6.95;;;2.92;;
63536;SDS011;49686;51.880;5.632;2022-07-04T09:49:20;6.70;;;2.50;;
63536;SDS011;49686;51.880;5.632;2022-07-04T09:51:52;7.13;;;2.58;;
63536;SDS011;49686;51.880;5.632;2022-07-04T09:54:20;5.75;;;2.50;;
63536;SDS011;49686;51.880;5.632;2022-07-04T09:56:49;7.43;;;2.75;;
63536;SDS011;49686;51.880;5.632;2022-07-04T09:59:18;6.13;;;2.72;;
63536;SDS011;49686;51.880;5.632;2022-07-04T10:01:45;6.65;;;2.38;;
63536;SDS011;49686;51.880;5.632;2022-07-04T10:04:13;5.90;;;2.15;;
63536;SDS011;49686;51.880;5.632;2022-07-04T10:06:41;6.25;;;2.30;;
63536;SDS011;49686;51.880;5.632;2022-07-04T10:09:12;9.35;;;2.80;;
63536;SDS011;49686;51.880;5.632;2022-07-04T10:11:42;8.85;;;2.80;;
63536;SDS011;49686;51.880;5.632;2022-07-04T10:14:10;6.32;;;2.78;;
63536;SDS011;49686;51.880;5.632;2022-07-04T10:19:37;4.38;;;2.17;;
63536;SDS011;49686;51.880;5.632;2022-07-04T10:22:07;5.45;;;2.40;;
63536;SDS011;49686;51.880;5.632;2022-07-04T10:24:37;7.40;;;2.90;;
63536;SDS011;49686;51.880;5.632;2022-07-04T10:27:07;7.63;;;2.85;;
63536;SDS011;49686;51.880;5.632;2022-07-04T10:29:34;6.90;;;2.60;;
63536;SDS011;49686;51.880;5.632;2022-07-04T10:32:02;9.00;;;2.80;;
63536;SDS011;49686;51.880;5.632;2022-07-04T10:34:38;6.18;;;2.90;;
63536;SDS011;49686;51.880;5.632;2022-07-04T10:37:05;6.50;;;2.20;;
63536;SDS011;49686;51.880;5.632;2022-07-04T10:39:37;4.63;;;1.65;;
63536;SDS011;49686;51.880;5.632;2022-07-04T10:42:05;2.75;;;1.80;;
63536;SDS011;49686;51.880;5.632;2022-07-04T10:44:33;3.95;;;1.88;;
63536;SDS011;49686;51.880;5.632;2022-07-04T10:47:01;3.28;;;1.77;;
63536;SDS011;49686;51.880;5.632;2022-07-04T10:49:28;4.13;;;1.80;;
63536;SDS011;49686;51.880;5.632;2022-07-04T10:52:08;2.25;;;1.30;;
63536;SDS011;49686;51.880;5.632;2022-07-04T10:54:36;7.20;;;1.90;;
63536;SDS011;49686;51.880;5.632;2022-07-04T10:57:08;5.50;;;1.90;;
63536;SDS011;49686;51.880;5.632;2022-07-04T10:59:37;4.38;;;2.00;;
63536;SDS011;49686;51.880;5.632;2022-07-04T11:02:23;8.18;;;1.85;;
63536;SDS011;49686;51.880;5.632;2022-07-04T11:04:59;4.75;;;1.77;;
63536;SDS011;49686;51.880;5.632;2022-07-04T11:10:30;4.18;;;1.40;;
63536;SDS011;49686;51.880;5.632;2022-07-04T11:13:18;5.35;;;1.15;;
63536;SDS011;49686;51.880;5.632;2022-07-04T11:16:04;3.83;;;1.40;;
63536;SDS011;49686;51.880;5.632;2022-07-04T11:18:39;3.90;;;1.42;;
63536;SDS011;49686;51.880;5.632;2022-07-04T11:21:17;3.60;;;1.10;;
63536;SDS011;49686;51.880;5.632;2022-07-04T11:23:54;6.72;;;1.65;;
63536;SDS011;49686;51.880;5.632;2022-07-04T11:26:24;2.75;;;1.20;;
63536;SDS011;49686;51.880;5.632;2022-07-04T11:28:51;2.92;;;1.52;;
63536;SDS011;49686;51.880;5.632;2022-07-04T11:31:18;2.60;;;0.80;;
63536;SDS011;49686;51.880;5.632;2022-07-04T11:33:46;5.20;;;1.20;;
63536;SDS011;49686;51.880;5.632;2022-07-04T11:36:15;4.88;;;1.90;;
63536;SDS011;49686;51.880;5.632;2022-07-04T11:38:51;4.00;;;2.03;;
63536;SDS011;49686;51.880;5.632;2022-07-04T11:41:21;5.95;;;1.73;;
63536;SDS011;49686;51.880;5.632;2022-07-04T11:43:54;4.70;;;1.80;;
63536;SDS011;49686;51.880;5.632;2022-07-04T11:46:21;5.32;;;1.80;;
63536;SDS011;49686;51.880;5.632;2022-07-04T11:48:48;4.43;;;1.60;;
63536;SDS011;49686;51.880;5.632;2022-07-04T11:51:16;4.53;;;1.55;;
63536;SDS011;49686;51.880;5.632;2022-07-04T11:53:43;2.03;;;1.30;;
63536;SDS011;49686;51.880;5.632;2022-07-04T11:56:11;6.70;;;1.45;;
63536;SDS011;49686;51.880;5.632;2022-07-04T11:58:46;3.63;;;1.20;;
63536;SDS011;49686;51.880;5.632;2022-07-04T12:01:13;5.85;;;1.83;;
63536;SDS011;49686;51.880;5.632;2022-07-04T12:03:53;3.92;;;1.30;;
63536;SDS011;49686;51.880;5.632;2022-07-04T12:06:20;2.78;;;1.40;;
63536;SDS011;49686;51.880;5.632;2022-07-04T12:08:51;2.30;;;1.30;;
63536;SDS011;49686;51.880;5.632;2022-07-04T12:14:32;3.50;;;1.55;;
63536;SDS011;49686;51.880;5.632;2022-07-04T12:17:09;3.20;;;1.50;;
63536;SDS011;49686;51.880;5.632;2022-07-04T12:19:37;4.47;;;1.30;;
63536;SDS011;49686;51.880;5.632;2022-07-04T12:22:05;5.70;;;1.40;;
63536;SDS011;49686;51.880;5.632;2022-07-04T12:24:41;4.07;;;1.63;;
63536;SDS011;49686;51.880;5.632;2022-07-04T12:27:18;2.83;;;1.60;;
63536;SDS011;49686;51.880;5.632;2022-07-04T12:29:49;3.60;;;1.33;;
63536;SDS011;49686;51.880;5.632;2022-07-04T12:32:18;4.55;;;1.23;;
63536;SDS011;49686;51.880;5.632;2022-07-04T12:34:45;2.42;;;1.10;;
63536;SDS011;49686;51.880;5.632;2022-07-04T12:37:13;1.80;;;1.13;;
63536;SDS011;49686;51.880;5.632;2022-07-04T12:39:43;2.80;;;1.40;;
63536;SDS011;49686;51.880;5.632;2022-07-04T12:42:14;3.80;;;1.35;;
63536;SDS011;49686;51.880;5.632;2022-07-04T12:44:44;4.82;;;1.40;;
63536;SDS011;49686;51.880;5.632;2022-07-04T12:47:16;2.80;;;1.13;;
63536;SDS011;49686;51.880;5.632;2022-07-04T12:50:03;2.95;;;1.13;;
63536;SDS011;49686;51.880;5.632;2022-07-04T12:52:34;1.85;;;1.00;;
63536;SDS011;49686;51.880;5.632;2022-07-04T12:55:01;2.47;;;1.08;;
63536;SDS011;49686;51.880;5.632;2022-07-04T12:57:33;2.00;;;1.55;;
63536;SDS011;49686;51.880;5.632;2022-07-04T13:00:06;2.42;;;1.10;;
63536;SDS011;49686;51.880;5.632;2022-07-04T13:03:00;1.30;;;1.00;;
63536;SDS011;49686;51.880;5.632;2022-07-04T13:05:33;2.75;;;1.70;;
63536;SDS011;49686;51.880;5.632;2022-07-04T13:08:04;1.88;;;1.20;;
63536;SDS011;49686;51.880;5.632;2022-07-04T13:10:32;2.72;;;1.00;;
63536;SDS011;49686;51.880;5.632;2022-07-04T13:13:00;2.00;;;1.60;;
63536;SDS011;49686;51.880;5.632;2022-07-04T13:15:27;3.88;;;1.20;;
63536;SDS011;49686;51.880;5.632;2022-07-04T13:17:55;2.38;;;1.40;;
63536;SDS011;49686;51.880;5.632;2022-07-04T13:20:23;5.80;;;1.30;;
63536;SDS011;49686;51.880;5.632;2022-07-04T13:22:50;4.28;;;1.75;;
63536;SDS011;49686;51.880;5.632;2022-07-04T13:25:17;2.00;;;1.05;;
63536;SDS011;49686;51.880;5.632;2022-07-04T13:27:45;5.05;;;1.40;;
63536;SDS011;49686;51.880;5.632;2022-07-04T13:30:14;4.32;;;1.50;;
63536;SDS011;49686;51.880;5.632;2022-07-04T13:32:41;3.50;;;1.20;;
63536;SDS011;49686;51.880;5.632;2022-07-04T13:35:14;2.13;;;1.42;;
63536;SDS011;49686;51.880;5.632;2022-07-04T13:37:42;3.45;;;1.10;;
63536;SDS011;49686;51.880;5.632;2022-07-04T13:40:09;2.00;;;1.30;;
63536;SDS011;49686;51.880;5.632;2022-07-04T13:42:37;2.83;;;1.93;;
63536;SDS011;49686;51.880;5.632;2022-07-04T13:45:05;2.15;;;1.60;;
63536;SDS011;49686;51.880;5.632;2022-07-04T13:47:33;2.97;;;1.40;;
63536;SDS011;49686;51.880;5.632;2022-07-04T13:50:00;2.10;;;1.05;;
63536;SDS011;49686;51.880;5.632;2022-07-04T13:52:27;3.60;;;1.30;;
63536;SDS011;49686;51.880;5.632;2022-07-04T13:54:56;3.80;;;1.00;;
63536;SDS011;49686;51.880;5.632;2022-07-04T13:57:23;3.15;;;1.30;;
63536;SDS011;49686;51.880;5.632;2022-07-04T13:59:50;2.63;;;1.50;;
63536;SDS011;49686;51.880;5.632;2022-07-04T14:02:17;2.97;;;1.10;;
63536;SDS011;49686;51.880;5.632;2022-07-04T14:04:44;2.10;;;0.90;;
63536;SDS011;49686;51.880;5.632;2022-07-04T14:07:17;2.47;;;1.13;;
63536;SDS011;49686;51.880;5.632;2022-07-04T14:09:45;2.30;;;0.82;;
63536;SDS011;49686;51.880;5.632;2022-07-04T14:12:20;3.33;;;1.02;;
63536;SDS011;49686;51.880;5.632;2022-07-04T14:14:48;2.15;;;1.00;;
63536;SDS011;49686;51.880;5.632;2022-07-04T14:17:15;1.42;;;0.90;;
63536;SDS011;49686;51.880;5.632;2022-07-04T14:20:01;1.27;;;0.80;;
63536;SDS011;49686;51.880;5.632;2022-07-04T14:22:28;5.18;;;1.30;;
63536;SDS011;49686;51.880;5.632;2022-07-04T14:24:55;1.20;;;0.70;;
63536;SDS011;49686;51.880;5.632;2022-07-04T14:27:24;2.73;;;0.90;;
63536;SDS011;49686;51.880;5.632;2022-07-04T14:29:50;2.88;;;0.90;;
63536;SDS011;49686;51.880;5.632;2022-07-04T14:32:17;4.28;;;1.05;;
63536;SDS011;49686;51.880;5.632;2022-07-04T14:34:45;2.63;;;1.20;;
63536;SDS011;49686;51.880;5.632;2022-07-04T14:37:14;3.55;;;0.90;;
63536;SDS011;49686;51.880;5.632;2022-07-04T14:39:43;3.33;;;1.00;;
63536;SDS011;49686;51.880;5.632;2022-07-04T14:42:11;2.97;;;0.90;;
63536;SDS011;49686;51.880;5.632;2022-07-04T14:44:39;1.98;;;1.15;;
63536;SDS011;49686;51.880;5.632;2022-07-04T14:47:08;2.45;;;0.82;;
63536;SDS011;49686;51.880;5.632;2022-07-04T14:49:38;2.05;;;1.13;;
63536;SDS011;49686;51.880;5.632;2022-07-04T14:52:05;4.00;;;1.00;;
63536;SDS011;49686;51.880;5.632;2022-07-04T14:54:32;3.55;;;1.30;;
63536;SDS011;49686;51.880;5.632;2022-07-04T14:56:59;4.30;;;1.10;;
63536;SDS011;49686;51.880;5.632;2022-07-04T14:59:26;3.20;;;1.25;;
63536;SDS011;49686;51.880;5.632;2022-07-04T15:01:58;3.45;;;1.58;;
63536;SDS011;49686;51.880;5.632;2022-07-04T15:04:25;4.20;;;1.10;;
63536;SDS011;49686;51.880;5.632;2022-07-04T15:07:06;1.90;;;1.08;;
63536;SDS011;49686;51.880;5.632;2022-07-04T15:09:34;3.53;;;1.10;;
63536;SDS011;49686;51.880;5.632;2022-07-04T15:12:01;2.60;;;1.10;;